createdAt,value
2018-06-08T00:00:18.874Z,24.30
2018-06-08T00:02:47.640Z,24.26
2018-06-08T00:05:16.537Z,24.16
2018-06-08T00:07:44.991Z,24.19
2018-06-08T00:10:14.039Z,24.13
2018-06-08T00:12:42.763Z,24.10
2018-06-08T00:15:11.111Z,24.12
2018-06-08T00:29:10.223Z,24.06
2018-06-08T00:31:38.495Z,24.01
2018-06-08T00:34:06.801Z,23.88
2018-06-08T00:36:44.569Z,23.85
2018-06-08T00:39:13.232Z,23.84
2018-06-08T00:41:41.519Z,23.86
2018-06-08T00:44:10.424Z,23.83
2018-06-08T00:47:01.588Z,23.75
2018-06-08T00:49:29.965Z,23.72
2018-06-08T00:51:58.313Z,23.70
2018-06-08T00:54:26.937Z,23.69
2018-06-08T00:57:10.643Z,23.67
2018-06-08T00:59:39.021Z,23.63
2018-06-08T01:02:07.370Z,23.62
2018-06-08T01:04:35.683Z,23.54
2018-06-08T01:07:04.038Z,23.49
2018-06-08T01:09:32.765Z,23.51
2018-06-08T01:12:01.175Z,23.45
2018-06-08T01:14:31.091Z,23.43
2018-06-08T01:17:00.260Z,23.44
2018-06-08T01:19:30.719Z,23.35
2018-06-08T01:21:59.265Z,23.17
2018-06-08T01:24:28.312Z,23.21
2018-06-08T01:26:56.779Z,23.19
2018-06-08T01:29:25.127Z,23.17
2018-06-08T01:31:53.442Z,23.16
2018-06-08T01:34:21.901Z,23.14
2018-06-08T01:37:13.021Z,23.15
2018-06-08T01:39:41.296Z,23.15
2018-06-08T01:42:09.628Z,23.20
2018-06-08T01:44:38.028Z,23.17
2018-06-08T01:47:06.390Z,23.16
2018-06-08T01:49:34.789Z,23.10
2018-06-08T01:52:03.183Z,23.06
2018-06-08T01:54:31.527Z,23.05
2018-06-08T01:57:00.921Z,23.06
2018-06-08T01:59:29.463Z,23.03
2018-06-08T02:01:57.903Z,23.02
2018-06-08T02:04:26.556Z,22.99
2018-06-08T02:07:17.726Z,22.94
2018-06-08T02:09:46.089Z,22.87
2018-06-08T02:12:14.489Z,22.87
2018-06-08T02:14:42.864Z,22.76
2018-06-08T02:17:11.267Z,22.78
2018-06-08T02:19:40.165Z,22.73
2018-06-08T02:22:08.470Z,22.73
2018-06-08T02:24:36.857Z,22.74
2018-06-08T02:27:05.459Z,22.72
2018-06-08T02:29:33.897Z,22.66
2018-06-08T02:32:02.299Z,22.61
2018-06-08T02:34:30.614Z,22.53
2018-06-08T02:36:59.057Z,22.48
2018-06-08T02:39:27.384Z,22.46
2018-06-08T02:41:55.693Z,22.45
2018-06-08T02:44:24.057Z,22.42
2018-06-08T02:46:57.489Z,22.40
2018-06-08T02:49:25.780Z,22.42
2018-06-08T02:51:54.493Z,22.34
2018-06-08T02:54:22.895Z,22.32
2018-06-08T02:57:05.034Z,22.30
2018-06-08T02:59:33.478Z,22.31
2018-06-08T03:02:02.434Z,22.27
2018-06-08T03:04:31.023Z,22.29
2018-06-08T03:06:59.949Z,22.26
2018-06-08T03:09:28.426Z,22.17
2018-06-08T03:11:56.860Z,22.00
2018-06-08T03:14:25.183Z,22.03
2018-06-08T03:19:46.150Z,22.02
2018-06-08T03:22:14.449Z,22.02
2018-06-08T03:24:42.814Z,22.01
2018-06-08T03:27:24.921Z,21.99
2018-06-08T03:29:53.277Z,21.88
2018-06-08T03:32:21.549Z,21.84
2018-06-08T03:34:49.919Z,21.80
2018-06-08T03:40:24.379Z,21.79
2018-06-08T03:42:54.233Z,21.67
2018-06-08T03:45:24.248Z,21.65
2018-06-08T03:51:08.065Z,21.58
2018-06-08T03:53:36.489Z,21.58
2018-06-08T03:56:04.849Z,21.54
2018-06-08T03:58:33.205Z,21.47
2018-06-08T04:01:02.149Z,21.46
2018-06-08T04:03:30.521Z,21.48
2018-06-08T04:05:59.418Z,21.51
2018-06-08T04:08:41.889Z,21.50
2018-06-08T04:11:10.377Z,21.45
2018-06-08T04:13:38.863Z,21.49
2018-06-08T04:16:07.219Z,21.49
2018-06-08T04:18:35.771Z,21.49
2018-06-08T04:21:04.269Z,21.45
2018-06-08T04:23:32.859Z,21.38
2018-06-08T04:26:01.359Z,21.42
2018-06-08T04:28:32.483Z,21.41
2018-06-08T04:31:01.187Z,21.48
2018-06-08T04:33:29.821Z,21.50
2018-06-08T04:35:58.471Z,21.52
2018-06-08T04:38:32.207Z,21.55
2018-06-08T04:41:00.761Z,21.52
2018-06-08T04:43:29.907Z,21.50
2018-06-08T04:45:58.423Z,21.44
2018-06-08T04:48:36.416Z,21.47
2018-06-08T04:51:05.007Z,21.48
2018-06-08T04:53:33.553Z,21.40
2018-06-08T04:56:02.176Z,21.37
2018-06-08T04:58:31.017Z,21.34
2018-06-08T05:00:59.644Z,21.37
2018-06-08T05:03:28.513Z,21.45
2018-06-08T05:05:57.260Z,21.50
2018-06-08T05:08:26.051Z,21.50
2018-06-08T05:10:55.038Z,21.61
2018-06-08T05:13:24.017Z,21.65
2018-06-08T05:15:52.587Z,21.65
2018-06-08T05:18:43.730Z,21.67
2018-06-08T05:21:12.505Z,21.76
2018-06-08T05:23:41.923Z,21.82
2018-06-08T05:26:11.338Z,21.90
2018-06-08T05:28:40.054Z,21.91
2018-06-08T05:31:08.735Z,21.91
2018-06-08T05:33:37.331Z,21.95
2018-06-08T05:36:06.279Z,21.99
2018-06-08T05:38:36.659Z,22.00
2018-06-08T05:41:05.371Z,22.03
2018-06-08T05:43:34.807Z,22.08
2018-06-08T05:46:03.519Z,22.12
2018-06-08T05:48:32.088Z,22.13
2018-06-08T05:51:01.639Z,22.17
2018-06-08T05:53:30.359Z,22.19
2018-06-08T05:55:58.688Z,22.25
2018-06-08T06:04:16.998Z,22.41
2018-06-08T06:07:04.385Z,22.43
2018-06-08T06:09:32.840Z,22.44
2018-06-08T06:12:01.255Z,22.47
2018-06-08T06:14:29.729Z,22.49
2018-06-08T06:16:58.149Z,22.53
2018-06-08T06:19:26.499Z,22.57
2018-06-08T06:21:55.507Z,22.61
2018-06-08T06:24:23.859Z,22.64
2018-06-08T06:27:05.997Z,22.70
2018-06-08T06:29:34.325Z,22.67
2018-06-08T06:32:02.755Z,22.66
2018-06-08T06:34:31.381Z,22.67
2018-06-08T06:37:09.445Z,22.69
2018-06-08T06:39:37.901Z,22.73
2018-06-08T06:42:06.443Z,22.77
2018-06-08T06:44:35.090Z,22.82
2018-06-08T06:47:03.688Z,22.86
2018-06-08T06:49:32.112Z,22.93
2018-06-08T06:52:00.493Z,22.97
2018-06-08T06:54:28.950Z,23.00
2018-06-08T06:57:02.667Z,23.04
2018-06-08T06:59:31.116Z,23.10
2018-06-08T07:01:59.675Z,23.15
2018-06-08T07:04:28.129Z,23.18
2018-06-08T07:07:01.954Z,23.19
2018-06-08T07:09:30.534Z,23.25
2018-06-08T07:11:59.257Z,23.30
2018-06-08T07:14:27.733Z,23.36
2018-06-08T07:16:58.111Z,23.43
2018-06-08T07:19:29.578Z,23.46
2018-06-08T07:21:58.166Z,23.52
2018-06-08T07:24:26.985Z,23.56
2018-06-08T07:27:05.672Z,23.59
2018-06-08T07:29:34.678Z,23.65
2018-06-08T07:32:03.273Z,23.73
2018-06-08T07:34:31.869Z,23.80
2018-06-08T07:39:53.362Z,23.94
2018-06-08T07:42:22.339Z,24.01
2018-06-08T07:44:51.659Z,24.08
2018-06-08T07:47:33.914Z,24.16
2018-06-08T07:50:04.287Z,24.24
2018-06-08T07:52:33.262Z,24.30
2018-06-08T07:55:03.272Z,24.38
2018-06-08T07:57:45.429Z,24.45
2018-06-08T08:00:13.862Z,24.50
2018-06-08T08:02:42.387Z,24.62
2018-06-08T08:05:10.818Z,24.70
2018-06-08T08:07:39.410Z,24.76
2018-06-08T08:10:07.950Z,24.84
2018-06-08T08:12:36.424Z,24.85
2018-06-08T08:15:04.975Z,24.88
2018-06-08T08:17:33.847Z,24.94
2018-06-08T08:20:02.524Z,25.01
2018-06-08T08:22:31.348Z,25.09
2018-06-08T08:25:00.075Z,25.12
2018-06-08T08:27:34.163Z,25.20
2018-06-08T08:30:19.489Z,25.26
2018-06-08T08:32:48.512Z,25.33
2018-06-08T08:35:17.268Z,25.37
2018-06-08T08:37:45.909Z,25.42
2018-06-08T08:40:14.406Z,25.43
2018-06-08T08:42:43.015Z,25.48
2018-06-08T08:45:12.236Z,25.48
2018-06-08T08:47:40.738Z,25.50
2018-06-08T08:50:22.221Z,25.53
2018-06-08T08:52:50.883Z,25.56
2018-06-08T08:55:21.067Z,25.58
2018-06-08T08:57:50.163Z,25.59
2018-06-08T09:00:18.631Z,25.60
2018-06-08T09:02:47.057Z,25.68
2018-06-08T09:05:15.618Z,25.75
2018-06-08T09:07:44.277Z,25.86
2018-06-08T09:10:12.653Z,25.94
2018-06-08T09:12:41.134Z,25.99
2018-06-08T09:15:09.618Z,26.08
2018-06-08T09:17:38.143Z,26.14
2018-06-08T09:20:06.579Z,26.16
2018-06-08T09:22:34.910Z,26.24
2018-06-08T09:25:03.762Z,26.30
2018-06-08T09:27:32.158Z,26.41
2018-06-08T09:30:00.558Z,26.43
2018-06-08T09:32:28.993Z,26.49
2018-06-08T09:34:57.444Z,26.51
2018-06-08T09:37:25.902Z,26.62
2018-06-08T09:39:54.345Z,26.70
2018-06-08T09:42:34.386Z,26.79
2018-06-08T09:45:03.120Z,26.75
2018-06-08T09:47:31.739Z,26.86
2018-06-08T09:50:00.432Z,26.95
2018-06-08T09:52:28.858Z,27.05
2018-06-08T09:54:57.292Z,27.14
2018-06-08T09:57:25.778Z,27.18
2018-06-08T09:59:54.194Z,27.22
2018-06-08T10:02:22.592Z,27.28
2018-06-08T10:04:51.062Z,27.34
2018-06-08T10:07:19.494Z,27.41
2018-06-08T10:09:47.976Z,27.33
2018-06-08T10:12:16.490Z,27.40
2018-06-08T10:14:45.460Z,27.50
2018-06-08T10:17:13.803Z,27.65
2018-06-08T10:19:42.156Z,27.76
2018-06-08T10:22:10.727Z,27.88
2018-06-08T10:24:39.098Z,28.04
2018-06-08T10:27:07.787Z,28.08
2018-06-08T10:29:38.458Z,28.15
2018-06-08T10:32:07.070Z,28.08
2018-06-08T10:34:35.546Z,28.13
2018-06-08T10:37:03.978Z,28.26
2018-06-08T10:39:33.001Z,28.40
2018-06-08T10:42:01.545Z,28.35
2018-06-08T10:44:31.024Z,28.36
2018-06-08T10:47:04.694Z,28.45
2018-06-08T10:49:33.298Z,28.58
2018-06-08T10:52:02.140Z,28.64
2018-06-08T10:54:30.566Z,28.79
2018-06-08T10:56:59.109Z,28.87
2018-06-08T10:59:27.678Z,28.93
2018-06-08T11:01:56.116Z,28.97
2018-06-08T11:04:24.538Z,29.03
2018-06-08T11:06:53.187Z,29.09
2018-06-08T11:09:21.636Z,29.13
2018-06-08T11:11:50.033Z,29.27
2018-06-08T11:14:18.465Z,29.35
2018-06-08T11:16:47.595Z,29.36
2018-06-08T11:19:16.189Z,29.38
2018-06-08T11:24:35.642Z,29.55
2018-06-08T11:27:04.180Z,29.69
2018-06-08T11:29:32.715Z,29.80
2018-06-08T11:32:01.124Z,30.02
2018-06-08T11:34:29.514Z,30.01
2018-06-08T11:36:58.196Z,30.04
2018-06-08T11:39:29.956Z,30.11
2018-06-08T11:41:58.428Z,30.03
2018-06-08T11:44:26.808Z,30.13
2018-06-08T11:46:55.606Z,30.24
2018-06-08T11:49:23.909Z,30.32
2018-06-08T11:54:47.792Z,30.44
2018-06-08T11:57:16.286Z,30.45
2018-06-08T11:59:44.902Z,30.46
2018-06-08T12:02:13.460Z,30.66
2018-06-08T12:04:41.926Z,30.56
2018-06-08T12:07:10.386Z,30.39
2018-06-08T12:09:38.782Z,29.94
2018-06-08T12:12:07.412Z,30.17
2018-06-08T12:14:35.869Z,30.23
2018-06-08T12:17:04.347Z,30.30
2018-06-08T12:19:32.654Z,30.59
2018-06-08T12:22:01.326Z,30.87
2018-06-08T12:24:29.721Z,30.99
2018-06-08T12:26:58.176Z,30.89
2018-06-08T12:29:26.670Z,30.44
2018-06-08T12:31:55.265Z,30.37
2018-06-08T12:34:23.678Z,30.47
2018-06-08T12:36:52.047Z,30.84
2018-06-08T12:39:20.650Z,31.11
2018-06-08T12:41:49.005Z,31.24
2018-06-08T12:44:17.614Z,31.32
2018-06-08T12:46:45.946Z,31.24
2018-06-08T12:49:14.474Z,31.35
2018-06-08T12:51:42.808Z,31.41
2018-06-08T12:54:13.858Z,31.26
2018-06-08T12:56:42.291Z,31.35
2018-06-08T12:59:10.756Z,31.22
2018-06-08T13:01:39.101Z,31.20
2018-06-08T13:04:07.606Z,31.12
2018-06-08T13:06:39.597Z,31.01
2018-06-08T13:09:09.278Z,31.00
2018-06-08T13:11:38.513Z,31.00
2018-06-08T13:14:06.944Z,30.99
2018-06-08T13:16:35.326Z,30.96
2018-06-08T13:19:03.890Z,30.98
2018-06-08T13:21:32.323Z,31.07
2018-06-08T13:24:02.238Z,31.00
2018-06-08T13:26:30.592Z,30.87
2018-06-08T13:28:59.407Z,30.66
2018-06-08T13:31:27.854Z,30.45
2018-06-08T13:33:56.214Z,30.37
2018-06-08T13:36:24.918Z,30.26
2018-06-08T13:38:53.546Z,30.13
2018-06-08T13:41:21.923Z,30.16
2018-06-08T13:43:50.299Z,30.17
2018-06-08T13:46:29.871Z,30.31
2018-06-08T13:48:58.326Z,30.58
2018-06-08T13:51:27.138Z,30.85
2018-06-08T13:53:55.465Z,31.05
2018-06-08T13:56:23.852Z,31.03
2018-06-08T13:58:53.027Z,30.70
2018-06-08T14:01:21.724Z,30.46
2018-06-08T14:03:50.164Z,30.26
2018-06-08T14:06:23.313Z,30.07
2018-06-08T14:08:52.267Z,30.03
2018-06-08T14:11:20.631Z,30.06
2018-06-08T14:13:54.120Z,30.10
2018-06-08T14:16:22.461Z,30.09
2018-06-08T14:18:50.827Z,30.14
2018-06-08T14:21:19.173Z,30.32
2018-06-08T14:23:47.781Z,30.40
2018-06-08T14:26:16.127Z,30.51
2018-06-08T14:28:44.498Z,30.67
2018-06-08T14:31:12.912Z,30.70
2018-06-08T14:33:41.269Z,30.71
2018-06-08T14:36:09.649Z,30.77
2018-06-08T14:38:38.012Z,30.81
2018-06-08T14:41:06.420Z,30.76
2018-06-08T14:43:34.862Z,30.72
2018-06-08T14:46:03.182Z,30.69
2018-06-08T14:48:31.587Z,30.62
2018-06-08T14:51:00.903Z,30.57
2018-06-08T14:53:29.996Z,30.55
2018-06-08T14:55:58.415Z,30.64
2018-06-08T14:58:26.795Z,30.68
2018-06-08T15:00:55.263Z,30.71
2018-06-08T15:03:23.754Z,30.69
2018-06-08T15:05:52.103Z,30.66
2018-06-08T15:08:20.526Z,30.51
2018-06-08T15:10:49.369Z,30.48
2018-06-08T15:13:17.758Z,30.45
2018-06-08T15:15:46.308Z,30.41
2018-06-08T15:18:14.706Z,30.38
2018-06-08T15:20:43.326Z,30.34
2018-06-08T15:23:12.085Z,30.33
2018-06-08T15:25:40.774Z,30.29
2018-06-08T15:28:14.263Z,30.24
2018-06-08T15:30:42.647Z,30.19
2018-06-08T15:33:11.692Z,30.14
2018-06-08T15:35:40.750Z,30.07
2018-06-08T15:38:09.182Z,30.01
2018-06-08T15:40:37.753Z,30.00
2018-06-08T15:43:06.517Z,29.94
2018-06-08T15:45:35.000Z,29.86
2018-06-08T15:48:03.551Z,29.84
2018-06-08T15:50:33.171Z,29.76
2018-06-08T15:53:01.603Z,29.74
2018-06-08T15:55:30.424Z,29.74
2018-06-08T15:57:59.240Z,29.75
2018-06-08T16:00:27.630Z,29.83
2018-06-08T16:02:56.040Z,29.85
2018-06-08T16:05:24.426Z,29.84
2018-06-08T16:07:52.771Z,29.85
2018-06-08T16:10:22.249Z,29.85
2018-06-08T16:12:50.780Z,29.84
2018-06-08T16:15:19.184Z,29.79
2018-06-08T16:17:47.654Z,29.76
2018-06-08T16:20:15.989Z,29.70
2018-06-08T16:22:44.543Z,29.67
2018-06-08T16:25:13.126Z,29.68
2018-06-08T16:27:41.526Z,29.69
2018-06-08T16:30:10.110Z,29.67
2018-06-08T16:32:38.455Z,29.64
2018-06-08T16:35:06.827Z,29.61
2018-06-08T16:37:40.322Z,29.58
2018-06-08T16:40:08.929Z,29.58
2018-06-08T16:42:37.328Z,29.56
2018-06-08T16:45:05.778Z,29.54
2018-06-08T16:47:39.180Z,29.54
2018-06-08T16:50:07.527Z,29.51
2018-06-08T16:52:35.952Z,29.47
2018-06-08T16:55:04.394Z,29.43
2018-06-08T16:57:33.692Z,29.37
2018-06-08T17:00:02.353Z,29.36
2018-06-08T17:02:30.718Z,29.35
2018-06-08T17:04:59.338Z,29.35
2018-06-08T17:07:27.696Z,29.38
2018-06-08T17:09:56.258Z,29.38
2018-06-08T17:12:24.725Z,29.35
2018-06-08T17:14:53.154Z,29.29
2018-06-08T17:17:21.816Z,29.29
2018-06-08T17:19:50.550Z,29.26
2018-06-08T17:22:19.898Z,29.21
2018-06-08T17:24:48.314Z,29.15
2018-06-08T17:30:23.146Z,29.06
2018-06-08T17:32:51.604Z,29.06
2018-06-08T17:35:20.106Z,29.01
2018-06-08T17:37:48.869Z,28.96
2018-06-08T17:40:18.617Z,28.94
2018-06-08T17:42:49.693Z,28.93
2018-06-08T17:45:19.752Z,28.89
2018-06-08T17:47:50.189Z,28.83
2018-06-08T17:50:20.308Z,28.80
2018-06-08T17:52:54.414Z,28.75
2018-06-08T17:55:24.448Z,28.70
2018-06-08T17:57:54.054Z,28.68
2018-06-08T18:00:25.029Z,28.65
2018-06-08T18:03:07.180Z,28.62
2018-06-08T18:05:37.058Z,28.61
2018-06-08T18:08:06.865Z,28.62
2018-06-08T18:10:37.186Z,28.59
2018-06-08T18:13:10.920Z,28.57
2018-06-08T18:15:41.877Z,28.51
2018-06-08T18:18:13.211Z,28.48
2018-06-08T18:20:41.608Z,28.44
2018-06-08T18:23:11.617Z,28.40
2018-06-08T18:25:41.415Z,28.36
2018-06-08T18:28:16.160Z,28.33
2018-06-08T18:30:48.624Z,28.28
2018-06-08T18:33:19.554Z,28.25
2018-06-08T18:35:48.557Z,28.21
2018-06-08T18:38:23.489Z,28.19
2018-06-08T18:40:52.407Z,28.18
2018-06-08T18:43:21.855Z,28.14
2018-06-08T18:45:51.575Z,28.11
2018-06-08T18:48:30.875Z,28.08
2018-06-08T18:51:00.155Z,28.06
2018-06-08T18:53:29.638Z,28.05
2018-06-08T18:55:58.793Z,28.03
2018-06-08T18:58:27.757Z,28.01
2018-06-08T19:00:56.707Z,27.96
2018-06-08T19:03:26.101Z,27.96
2018-06-08T19:05:54.682Z,27.94
2018-06-08T19:08:23.793Z,27.92
2018-06-08T19:10:52.942Z,27.90
2018-06-08T19:13:22.375Z,27.88
2018-06-08T19:15:51.763Z,27.88
2018-06-08T19:18:20.271Z,27.84
2018-06-08T19:20:50.011Z,27.84
2018-06-08T19:23:18.611Z,27.80
2018-06-08T19:25:48.980Z,27.77
2018-06-08T19:28:36.434Z,27.77
2018-06-08T19:31:18.795Z,27.74
2018-06-08T19:33:51.276Z,27.73
2018-06-08T19:36:23.648Z,27.70
2018-06-08T19:38:53.117Z,27.70
2018-06-08T19:41:24.103Z,27.71
2018-06-08T19:43:55.261Z,27.75
2018-06-08T19:46:24.165Z,27.79
2018-06-08T19:48:57.193Z,27.84
2018-06-08T19:51:26.027Z,27.82
2018-06-08T19:53:56.401Z,27.81
2018-06-08T19:56:26.031Z,27.82
2018-06-08T19:59:17.189Z,27.81
2018-06-08T20:01:46.183Z,27.76
2018-06-08T20:04:14.843Z,27.75
2018-06-08T20:06:43.334Z,27.69
2018-06-08T20:09:12.149Z,27.68
2018-06-08T20:11:42.558Z,27.66
2018-06-08T20:14:11.464Z,27.65
2018-06-08T20:16:44.775Z,27.62
2018-06-08T20:19:15.459Z,27.59
2018-06-08T20:21:45.243Z,27.52
2018-06-08T20:24:16.607Z,27.50
2018-06-08T20:26:46.257Z,27.45
2018-06-08T20:29:22.172Z,27.36
2018-06-08T20:31:51.607Z,27.36
2018-06-08T20:34:20.799Z,27.39
2018-06-08T20:36:50.307Z,27.33
2018-06-08T20:39:24.033Z,27.31
2018-06-08T20:41:53.040Z,27.28
2018-06-08T20:44:22.054Z,27.29
2018-06-08T20:46:50.593Z,27.31
2018-06-08T20:49:20.255Z,27.26
2018-06-08T20:51:49.749Z,27.17
2018-06-08T20:54:18.953Z,27.22
2018-06-08T20:56:57.291Z,27.21
2018-06-08T20:59:26.061Z,27.24
2018-06-08T21:01:54.751Z,27.22
2018-06-08T21:04:23.536Z,27.18
2018-06-08T21:06:54.144Z,27.20
2018-06-08T21:09:27.885Z,27.19
2018-06-08T21:11:57.827Z,27.14
2018-06-08T21:14:27.128Z,27.13
2018-06-08T21:16:56.595Z,27.08
2018-06-08T21:19:25.573Z,27.07
2018-06-08T21:21:54.803Z,27.05
2018-06-08T21:24:25.089Z,27.05
2018-06-08T21:26:53.512Z,27.04
2018-06-08T21:29:32.620Z,26.98
2018-06-08T21:32:01.214Z,26.93
2018-06-08T21:34:30.229Z,26.92
2018-06-08T21:36:58.852Z,26.94
2018-06-08T21:39:38.987Z,26.97
2018-06-08T21:42:08.959Z,26.92
2018-06-08T21:44:39.488Z,26.88
2018-06-08T21:47:09.289Z,26.86
2018-06-08T21:49:40.161Z,26.82
2018-06-08T21:52:09.771Z,26.83
2018-06-08T21:54:40.950Z,26.81
2018-06-08T21:57:15.862Z,26.82
2018-06-08T21:59:46.023Z,26.82
2018-06-08T22:02:16.015Z,26.77
2018-06-08T22:04:46.130Z,26.76
2018-06-08T22:07:37.359Z,26.77
2018-06-08T22:10:07.807Z,26.72
2018-06-08T22:12:36.785Z,26.66
2018-06-08T22:15:07.753Z,26.66
2018-06-08T22:17:38.149Z,26.58
2018-06-08T22:20:07.488Z,26.56
2018-06-08T22:22:40.781Z,26.56
2018-06-08T22:25:12.245Z,26.48
2018-06-08T22:27:59.639Z,26.44
2018-06-08T22:30:32.531Z,26.49
2018-06-08T22:33:02.140Z,26.52
2018-06-08T22:35:31.367Z,26.50
2018-06-08T22:37:59.745Z,26.52
2018-06-08T22:40:28.548Z,26.46
2018-06-08T22:42:57.456Z,26.38
2018-06-08T22:45:26.979Z,26.31
2018-06-08T22:47:55.722Z,26.35
2018-06-08T22:50:24.774Z,26.28
2018-06-08T22:52:53.466Z,26.29
2018-06-08T22:55:21.801Z,26.27
2018-06-08T22:58:12.944Z,26.28
2018-06-08T23:00:41.322Z,26.26
2018-06-08T23:03:09.710Z,26.21
2018-06-08T23:05:38.080Z,26.24
2018-06-08T23:08:06.759Z,26.19
2018-06-08T23:10:35.072Z,26.21
2018-06-08T23:13:03.447Z,26.23
2018-06-08T23:15:31.899Z,26.18
2018-06-08T23:18:00.295Z,26.23
2018-06-08T23:20:28.629Z,26.21
2018-06-08T23:22:57.003Z,26.23
2018-06-08T23:25:25.477Z,26.18
2018-06-08T23:28:07.788Z,26.14
2018-06-08T23:30:36.213Z,26.09
2018-06-08T23:33:04.611Z,26.07
2018-06-08T23:35:33.294Z,26.09
2018-06-08T23:38:01.685Z,26.06
2018-06-08T23:40:30.082Z,26.07
2018-06-08T23:42:58.612Z,26.06
2018-06-08T23:45:27.292Z,26.00
2018-06-08T23:47:55.855Z,25.96
2018-06-08T23:50:24.255Z,25.92
2018-06-08T23:52:52.738Z,25.88
2018-06-08T23:55:21.338Z,25.85
2018-06-08T23:57:59.228Z,25.69
